createdAt,value
2022-08-29T00:01:36.238Z,98007.16
2022-08-29T00:04:40.637Z,98011.00
2022-08-29T00:07:43.420Z,98009.00
2022-08-29T00:10:46.503Z,98009.56
2022-08-29T00:13:49.458Z,98009.63
2022-08-29T00:16:52.411Z,98027.63
2022-08-29T00:19:56.494Z,98041.84
2022-08-29T00:23:00.100Z,98054.22
2022-08-29T00:26:03.234Z,98065.53
2022-08-29T00:29:06.069Z,98076.78
2022-08-29T00:32:08.877Z,98099.53
2022-08-29T00:35:15.590Z,98097.03
2022-08-29T00:38:19.332Z,98098.84
2022-08-29T00:41:22.225Z,98100.38
2022-08-29T00:44:24.985Z,98103.94
2022-08-29T00:47:33.042Z,98117.13
2022-08-29T00:50:41.662Z,98126.03
2022-08-29T00:53:49.337Z,98119.91
2022-08-29T00:56:52.374Z,98121.09
2022-08-29T00:59:55.940Z,98121.91
2022-08-29T01:02:58.841Z,98134.50
2022-08-29T01:06:04.915Z,98153.19
2022-08-29T01:09:09.154Z,98155.34
2022-08-29T01:12:17.464Z,98166.22
2022-08-29T01:15:20.635Z,98168.56
2022-08-29T01:18:25.446Z,98185.16
2022-08-29T01:26:17.154Z,98201.03
2022-08-29T01:29:20.216Z,98200.66
2022-08-29T01:32:24.431Z,98208.97
2022-08-29T01:35:27.419Z,98211.16
2022-08-29T01:38:30.186Z,98219.09
2022-08-29T01:41:35.492Z,98218.09
2022-08-29T01:44:38.590Z,98223.44
2022-08-29T01:47:41.386Z,98231.66
2022-08-29T01:50:44.204Z,98237.50
2022-08-29T01:53:47.125Z,98244.75
2022-08-29T01:56:53.085Z,98251.66
2022-08-29T01:59:56.560Z,98244.13
2022-08-29T02:03:00.998Z,98248.44
2022-08-29T02:06:05.321Z,98270.88
2022-08-29T02:09:11.254Z,98281.41
2022-08-29T02:12:16.565Z,98299.25
2022-08-29T02:15:19.344Z,98308.38
2022-08-29T02:18:22.336Z,98308.75
2022-08-29T02:21:29.161Z,98321.81
2022-08-29T02:24:32.092Z,98345.94
2022-08-29T02:27:36.258Z,98367.53
2022-08-29T02:30:39.166Z,98380.94
2022-08-29T02:33:41.927Z,98392.88
2022-08-29T02:36:45.242Z,98398.63
2022-08-29T02:39:52.057Z,98404.75
2022-08-29T02:42:57.043Z,98413.84
2022-08-29T02:46:00.257Z,98421.59
2022-08-29T02:49:03.021Z,98438.94
2022-08-29T02:52:08.543Z,98426.91
2022-08-29T02:55:15.493Z,98426.88
2022-08-29T02:58:21.279Z,98425.44
2022-08-29T03:01:26.094Z,98435.63
2022-08-29T03:04:28.859Z,98435.47
2022-08-29T03:07:31.592Z,98435.31
2022-08-29T03:10:35.640Z,98428.19
2022-08-29T03:13:39.790Z,98420.25
2022-08-29T03:16:42.581Z,98417.97
2022-08-29T03:19:45.386Z,98415.88
2022-08-29T03:22:49.178Z,98411.91
2022-08-29T03:25:51.998Z,98424.44
2022-08-29T03:28:56.214Z,98415.03
2022-08-29T03:31:59.775Z,98410.91
2022-08-29T03:35:02.626Z,98417.53
2022-08-29T03:38:05.461Z,98421.63
2022-08-29T03:41:08.894Z,98417.19
2022-08-29T03:44:13.479Z,98426.25
2022-08-29T03:47:16.289Z,98429.38
2022-08-29T03:50:20.157Z,98430.38
2022-08-29T03:53:22.946Z,98427.59
2022-08-29T03:56:26.089Z,98439.47
2022-08-29T03:59:31.973Z,98446.88
2022-08-29T04:02:34.962Z,98439.47
2022-08-29T04:05:37.970Z,98444.09
2022-08-29T04:08:40.726Z,98450.72
2022-08-29T04:11:43.503Z,98451.19
2022-08-29T04:14:48.043Z,98457.94
2022-08-29T04:17:54.455Z,98450.19
2022-08-29T04:21:02.718Z,98446.88
2022-08-29T04:24:05.604Z,98448.69
2022-08-29T04:27:08.338Z,98440.25
2022-08-29T04:30:17.198Z,98444.25
2022-08-29T04:33:22.533Z,98438.81
2022-08-29T04:36:28.223Z,98443.44
2022-08-29T04:39:30.963Z,98442.09
2022-08-29T04:42:33.730Z,98440.94
2022-08-29T04:45:40.413Z,98447.03
2022-08-29T04:48:43.349Z,98436.50
2022-08-29T04:51:46.170Z,98437.81
2022-08-29T04:54:49.091Z,98440.78
2022-08-29T04:57:53.492Z,98438.00
2022-08-29T05:00:57.877Z,98444.13
2022-08-29T05:04:00.901Z,98445.75
2022-08-29T05:07:03.743Z,98446.06
2022-08-29T05:10:09.304Z,98457.13
2022-08-29T05:13:12.476Z,98454.69
2022-08-29T05:16:18.578Z,98454.34
2022-08-29T05:19:21.453Z,98459.28
2022-08-29T05:22:24.716Z,98461.94
2022-08-29T05:25:27.521Z,98463.25
2022-08-29T05:28:32.452Z,98463.91
2022-08-29T05:31:37.574Z,98470.66
2022-08-29T05:34:40.608Z,98473.81
2022-08-29T05:37:43.404Z,98473.50
2022-08-29T05:40:46.367Z,98481.06
2022-08-29T05:43:49.270Z,98477.63
2022-08-29T05:46:54.058Z,98466.06
2022-08-29T05:49:56.815Z,98485.22
2022-08-29T05:52:59.833Z,98494.59
2022-08-29T05:56:03.138Z,98500.25
2022-08-29T05:59:06.197Z,98508.34
2022-08-29T06:02:11.744Z,98502.56
2022-08-29T06:05:15.051Z,98501.72
2022-08-29T06:08:18.059Z,98496.94
2022-08-29T06:11:23.738Z,98501.03
2022-08-29T06:14:26.870Z,98502.22
2022-08-29T06:17:31.026Z,98502.88
2022-08-29T06:20:33.894Z,98502.22
2022-08-29T06:23:37.406Z,98504.88
2022-08-29T06:26:40.188Z,98512.09
2022-08-29T06:29:43.906Z,98513.91
2022-08-29T06:32:48.214Z,98517.22
2022-08-29T06:35:51.069Z,98516.41
2022-08-29T06:38:56.378Z,98516.38
2022-08-29T06:41:59.152Z,98510.75
2022-08-29T06:45:01.953Z,98507.13
2022-08-29T06:48:06.371Z,98506.13
2022-08-29T06:51:09.127Z,98514.88
2022-08-29T06:54:14.787Z,98508.41
2022-08-29T06:57:18.156Z,98502.75
2022-08-29T07:00:22.209Z,98479.44
2022-08-29T07:03:26.881Z,98473.59
2022-08-29T07:06:31.156Z,98461.41
2022-08-29T07:09:34.116Z,98435.06
2022-08-29T07:12:36.911Z,98411.72
2022-08-29T07:15:39.770Z,98382.34
2022-08-29T07:18:44.087Z,98341.50
2022-08-29T07:21:48.924Z,98311.22
2022-08-29T07:24:51.697Z,98237.16
2022-08-29T07:27:54.469Z,98162.69
2022-08-29T07:30:57.364Z,98078.84
2022-08-29T07:34:02.937Z,98025.72
2022-08-29T07:37:06.140Z,97980.75
2022-08-29T07:40:11.534Z,97972.31
2022-08-29T07:43:17.911Z,97926.06
2022-08-29T07:46:22.894Z,97885.56
2022-08-29T07:49:40.225Z,97855.78
2022-08-29T07:52:43.645Z,97853.16
2022-08-29T07:55:46.653Z,97853.00
2022-08-29T07:58:49.470Z,97844.47
2022-08-29T08:01:52.370Z,97844.94
2022-08-29T08:04:56.856Z,97842.69
2022-08-29T08:08:04.724Z,97835.16
2022-08-29T08:11:11.771Z,97837.63
2022-08-29T08:14:14.792Z,97834.38
2022-08-29T08:17:17.517Z,97835.16
2022-08-29T08:20:21.778Z,97842.09
2022-08-29T08:23:24.560Z,97845.41
2022-08-29T08:26:27.863Z,97841.75
2022-08-29T08:29:30.652Z,97850.31
2022-08-29T08:32:33.434Z,97851.16
2022-08-29T08:35:41.939Z,97852.78
2022-08-29T08:38:45.398Z,97855.03
2022-08-29T08:41:54.209Z,97869.56
2022-08-29T08:45:05.191Z,97868.34
2022-08-29T08:48:12.147Z,97876.47
2022-08-29T08:51:23.034Z,97886.69
2022-08-29T08:54:29.659Z,97886.66
2022-08-29T08:57:39.923Z,97874.38
2022-08-29T09:00:47.564Z,97877.22
2022-08-29T09:04:04.487Z,97875.53
2022-08-29T09:07:22.393Z,97881.28
2022-08-29T09:10:31.408Z,97889.03
2022-08-29T09:13:46.724Z,97889.44
2022-08-29T09:16:53.759Z,97877.75
2022-08-29T09:19:57.634Z,97886.91
2022-08-29T09:23:05.609Z,97901.69
2022-08-29T09:26:08.753Z,97895.53
2022-08-29T09:29:13.887Z,97896.66
2022-08-29T09:32:22.106Z,97894.78
2022-08-29T09:35:27.758Z,97899.50
2022-08-29T09:38:31.981Z,97899.91
2022-08-29T09:41:34.823Z,97900.94
2022-08-29T09:44:37.962Z,97890.31
2022-08-29T09:47:40.782Z,97895.19
2022-08-29T09:50:43.706Z,97899.63
2022-08-29T09:53:47.939Z,97883.03
2022-08-29T09:56:55.845Z,97898.78
2022-08-29T10:00:16.126Z,97896.66
2022-08-29T10:03:24.623Z,97904.88
2022-08-29T10:06:29.998Z,97899.09
2022-08-29T10:09:34.097Z,97907.97
2022-08-29T10:12:44.177Z,97897.78
2022-08-29T10:15:53.275Z,97906.38
2022-08-29T10:19:00.232Z,97905.53
2022-08-29T10:22:09.682Z,97903.38
2022-08-29T10:25:20.981Z,97903.91
2022-08-29T10:28:34.060Z,97896.47
2022-08-29T10:31:41.610Z,97910.88
2022-08-29T10:35:01.823Z,97908.50
2022-08-29T10:38:13.488Z,97903.19
2022-08-29T10:41:39.592Z,97909.16
2022-08-29T10:44:54.408Z,97915.09
2022-08-29T10:48:05.489Z,97892.81
2022-08-29T10:51:18.196Z,97887.38
2022-08-29T10:54:33.730Z,97888.09
2022-08-29T10:57:48.272Z,97875.91
2022-08-29T11:00:58.579Z,97880.84
2022-08-29T11:04:17.364Z,97874.59
2022-08-29T11:07:30.078Z,97877.59
2022-08-29T11:10:42.786Z,97889.38
2022-08-29T11:13:51.040Z,97887.00
2022-08-29T11:16:56.240Z,97894.63
2022-08-29T11:20:11.809Z,97878.78
2022-08-29T11:23:24.365Z,97879.94
2022-08-29T11:26:42.313Z,97895.09
2022-08-29T11:29:52.925Z,97899.66
2022-08-29T11:33:09.573Z,97894.81
2022-08-29T11:36:37.649Z,97898.31
2022-08-29T11:39:56.516Z,97897.56
2022-08-29T11:43:02.957Z,97887.97
2022-08-29T11:46:17.760Z,97899.94
2022-08-29T11:49:33.876Z,97897.97
2022-08-29T11:52:37.075Z,97894.47
2022-08-29T11:55:42.315Z,97893.19
2022-08-29T11:58:48.331Z,97894.13
2022-08-29T12:02:03.128Z,97905.53
2022-08-29T12:05:08.293Z,97899.16
2022-08-29T12:08:35.991Z,97892.59
2022-08-29T12:12:13.104Z,97884.56
2022-08-29T12:15:54.923Z,97881.56
2022-08-29T12:19:00.025Z,97875.28
2022-08-29T12:22:04.943Z,97873.16
2022-08-29T12:26:09.484Z,97871.00
2022-08-29T12:29:23.329Z,97870.31
2022-08-29T12:32:52.734Z,97872.06
2022-08-29T12:36:11.071Z,97870.06
2022-08-29T12:39:27.753Z,97870.56
2022-08-29T12:42:42.900Z,97870.56
2022-08-29T12:45:48.290Z,97869.63
2022-08-29T12:48:58.060Z,97870.44
2022-08-29T12:52:05.612Z,97863.00
2022-08-29T12:55:23.949Z,97862.78
2022-08-29T12:58:39.586Z,97866.72
2022-08-29T13:01:48.470Z,97863.09
2022-08-29T13:04:51.304Z,97852.50
2022-08-29T13:07:57.476Z,97851.16
2022-08-29T13:11:03.217Z,97854.97
2022-08-29T13:14:09.251Z,97845.63
2022-08-29T13:17:15.588Z,97854.97
2022-08-29T13:20:48.631Z,97847.97
2022-08-29T13:24:02.186Z,97849.16
2022-08-29T13:27:09.151Z,97843.09
2022-08-29T13:30:23.039Z,97842.97
2022-08-29T13:33:35.627Z,97843.59
2022-08-29T13:36:42.364Z,97845.88
2022-08-29T13:39:48.604Z,97843.19
2022-08-29T13:42:51.793Z,97841.69
2022-08-29T13:46:15.424Z,97830.06
2022-08-29T13:49:21.015Z,97836.09
2022-08-29T13:52:24.377Z,97840.06
2022-08-29T13:55:36.383Z,97830.41
2022-08-29T13:58:39.120Z,97831.91
2022-08-29T14:05:04.821Z,97829.81
2022-08-29T14:08:07.968Z,97820.16
2022-08-29T14:11:12.321Z,97827.72
2022-08-29T14:14:15.399Z,97814.66
2022-08-29T14:17:19.328Z,97820.50
2022-08-29T14:20:22.759Z,97820.28
2022-08-29T14:23:25.507Z,97817.31
2022-08-29T14:26:29.623Z,97814.38
2022-08-29T14:29:34.014Z,97829.81
2022-08-29T14:32:37.210Z,97825.50
2022-08-29T14:35:41.797Z,97819.44
2022-08-29T14:38:46.154Z,97815.59
2022-08-29T14:41:50.299Z,97813.31
2022-08-29T14:44:53.721Z,97813.50
2022-08-29T14:47:56.745Z,97811.88
2022-08-29T14:50:59.493Z,97824.09
2022-08-29T14:54:02.283Z,97812.56
2022-08-29T14:57:06.724Z,97809.44
2022-08-29T15:00:13.038Z,97812.25
2022-08-29T15:03:16.278Z,97797.00
2022-08-29T15:06:19.683Z,97809.69
2022-08-29T15:09:22.562Z,97800.13
2022-08-29T15:12:28.007Z,97811.28
2022-08-29T15:15:30.867Z,97799.53
2022-08-29T15:19:22.418Z,97798.38
2022-08-29T15:21:59.647Z,97793.81
2022-08-29T15:25:04.271Z,97789.78
2022-08-29T15:28:11.877Z,97783.47
2022-08-29T15:31:15.157Z,97785.69
2022-08-29T15:34:18.021Z,97775.56
2022-08-29T15:37:20.919Z,97783.16
2022-08-29T15:40:24.138Z,97784.53
2022-08-29T15:43:28.398Z,97785.34
2022-08-29T15:46:32.258Z,97780.00
2022-08-29T15:49:40.536Z,97779.44
2022-08-29T15:52:43.348Z,97781.53
2022-08-29T15:55:46.143Z,97788.03
2022-08-29T15:58:50.498Z,97780.81
2022-08-29T16:01:54.649Z,97776.53
2022-08-29T16:04:57.739Z,97771.31
2022-08-29T16:08:01.155Z,97767.22
2022-08-29T16:11:04.719Z,97767.69
2022-08-29T16:17:32.148Z,97765.59
2022-08-29T16:20:41.387Z,97777.13
2022-08-29T16:23:44.495Z,97772.69
2022-08-29T16:26:47.261Z,97776.41
2022-08-29T16:29:51.420Z,97780.03
2022-08-29T16:32:54.801Z,97774.78
2022-08-29T16:35:58.777Z,97773.63
2022-08-29T16:39:01.897Z,97770.72
2022-08-29T16:42:05.033Z,97768.50
2022-08-29T16:45:11.601Z,97760.16
2022-08-29T16:48:17.051Z,97757.13
2022-08-29T16:51:25.303Z,97754.84
2022-08-29T16:54:28.678Z,97751.16
2022-08-29T16:57:31.646Z,97753.69
2022-08-29T17:00:37.038Z,97749.03
2022-08-29T17:03:40.189Z,97761.59
2022-08-29T17:06:43.519Z,97756.69
2022-08-29T17:09:47.273Z,97758.78
2022-08-29T17:12:49.059Z,97764.63
2022-08-29T17:15:52.244Z,97763.91
2022-08-29T17:18:55.025Z,97754.00
2022-08-29T17:21:58.745Z,97749.44
2022-08-29T17:25:01.855Z,97745.13
2022-08-29T17:28:17.584Z,97744.31
2022-08-29T17:31:23.910Z,97746.50
2022-08-29T17:34:27.478Z,97737.06
2022-08-29T17:37:36.072Z,97715.94
2022-08-29T17:40:42.549Z,97708.88
2022-08-29T17:43:47.323Z,97712.34
2022-08-29T17:46:51.974Z,97720.81
2022-08-29T17:49:55.606Z,97717.13
2022-08-29T17:52:58.783Z,97707.19
2022-08-29T17:56:11.841Z,97702.59
2022-08-29T17:59:20.026Z,97711.34
2022-08-29T18:02:28.858Z,97719.50
2022-08-29T18:05:31.674Z,97736.97
2022-08-29T18:08:38.342Z,97731.00
2022-08-29T18:11:46.649Z,97727.72
2022-08-29T18:14:54.864Z,97720.47
2022-08-29T18:18:01.958Z,97722.09
2022-08-29T18:21:05.752Z,97734.38
2022-08-29T18:24:11.114Z,97732.50
2022-08-29T18:27:14.787Z,97730.69
2022-08-29T18:30:17.681Z,97739.84
2022-08-29T18:33:22.430Z,97753.38
2022-08-29T18:36:25.432Z,97755.47
2022-08-29T18:39:28.222Z,97756.75
2022-08-29T18:42:40.400Z,97753.72
2022-08-29T18:45:44.299Z,97755.44
2022-08-29T18:48:48.767Z,97750.09
2022-08-29T18:51:51.775Z,97740.72
2022-08-29T18:54:55.068Z,97741.53
2022-08-29T18:57:58.273Z,97760.16
2022-08-29T19:01:10.852Z,97749.94
2022-08-29T19:04:25.227Z,97745.69
2022-08-29T19:07:29.060Z,97758.66
2022-08-29T19:10:32.664Z,97752.19
2022-08-29T19:13:36.463Z,97756.56
2022-08-29T19:16:42.728Z,97744.78
2022-08-29T19:20:10.065Z,97738.00
2022-08-29T19:23:14.828Z,97751.25
2022-08-29T19:26:19.971Z,97754.88
2022-08-29T19:29:25.795Z,97757.81
2022-08-29T19:32:29.377Z,97747.22
2022-08-29T19:35:34.400Z,97736.66
2022-08-29T19:38:41.753Z,97743.38
2022-08-29T19:41:45.095Z,97741.19
2022-08-29T19:44:48.781Z,97735.47
2022-08-29T19:47:52.641Z,97735.88
2022-08-29T19:50:58.098Z,97733.00
2022-08-29T19:54:06.169Z,97721.59
2022-08-29T19:57:08.930Z,97722.41
2022-08-29T20:00:19.153Z,97727.50
2022-08-29T20:03:22.552Z,97734.66
2022-08-29T20:06:29.356Z,97736.41
2022-08-29T20:09:32.750Z,97728.88
2022-08-29T20:12:39.647Z,97732.97
2022-08-29T20:15:45.672Z,97738.28
2022-08-29T20:18:48.456Z,97745.97
2022-08-29T20:21:56.381Z,97747.59
2022-08-29T20:25:00.010Z,97748.66
2022-08-29T20:28:03.166Z,97751.13
2022-08-29T20:31:07.304Z,97757.44
2022-08-29T20:34:11.443Z,97756.47
2022-08-29T20:37:17.084Z,97754.13
2022-08-29T20:40:20.173Z,97765.13
2022-08-29T20:43:24.452Z,97765.38
2022-08-29T20:46:28.639Z,97775.53
2022-08-29T20:49:31.695Z,97776.06
2022-08-29T20:52:38.541Z,97777.75
2022-08-29T20:55:42.346Z,97783.56
2022-08-29T20:58:46.343Z,97803.69
2022-08-29T21:01:49.764Z,97803.34
2022-08-29T21:05:12.972Z,97810.00
2022-08-29T21:08:19.373Z,97823.53
2022-08-29T21:11:22.543Z,97816.09
2022-08-29T21:14:27.305Z,97825.16
2022-08-29T21:17:32.278Z,97828.66
2022-08-29T21:20:44.806Z,97837.41
2022-08-29T21:23:58.637Z,97830.88
2022-08-29T21:27:01.410Z,97833.31
2022-08-29T21:30:04.595Z,97844.53
2022-08-29T21:33:08.423Z,97860.81
2022-08-29T21:36:12.300Z,97863.03
2022-08-29T21:39:28.712Z,97869.41
2022-08-29T21:42:31.960Z,97862.91
2022-08-29T21:45:35.505Z,97858.97
2022-08-29T21:48:38.342Z,97869.66
2022-08-29T21:51:41.808Z,97871.28
2022-08-29T21:54:46.181Z,97873.56
2022-08-29T21:57:59.937Z,97881.97
2022-08-29T22:01:02.765Z,97880.94
2022-08-29T22:04:08.572Z,97885.03
2022-08-29T22:07:13.146Z,97879.09
2022-08-29T22:10:20.469Z,97879.31
2022-08-29T22:13:23.297Z,97877.81
2022-08-29T22:16:31.125Z,97875.28
2022-08-29T22:19:34.904Z,97875.50
2022-08-29T22:22:38.323Z,97874.84
2022-08-29T22:25:42.429Z,97883.34
2022-08-29T22:28:46.147Z,97887.38
2022-08-29T22:31:49.089Z,97885.34
2022-08-29T22:34:51.964Z,97881.69
2022-08-29T22:37:54.732Z,97876.28
2022-08-29T22:40:58.949Z,97877.16
2022-08-29T22:44:42.338Z,97869.34
2022-08-29T22:47:26.704Z,97875.84
2022-08-29T22:50:29.460Z,97879.78
2022-08-29T22:53:32.256Z,97880.06
2022-08-29T22:56:38.550Z,97879.28
2022-08-29T22:59:42.684Z,97880.22
2022-08-29T23:02:45.887Z,97884.81
2022-08-29T23:05:48.761Z,97870.59
2022-08-29T23:08:51.753Z,97882.19
2022-08-29T23:11:56.043Z,97874.97
2022-08-29T23:15:00.648Z,97874.50
2022-08-29T23:18:03.481Z,97885.22
2022-08-29T23:21:06.688Z,97880.09
2022-08-29T23:24:10.545Z,97862.06
2022-08-29T23:27:14.864Z,97872.31
2022-08-29T23:30:17.708Z,97871.47
2022-08-29T23:33:20.610Z,97884.47
2022-08-29T23:36:23.874Z,97884.88
2022-08-29T23:39:26.796Z,97887.53
2022-08-29T23:42:30.960Z,97876.22
2022-08-29T23:45:33.748Z,97873.94
2022-08-29T23:48:36.711Z,97875.31
2022-08-29T23:51:39.477Z,97878.59
2022-08-29T23:54:42.221Z,97878.88
2022-08-29T23:57:46.330Z,97868.84
